Extrema, Brazil
Current Conditions -  °F | °C
As of 7:00 PM on Sunday 23 Nov 2014 (Local Time) from SBSJ Reporting Station
Light Rain Light Rain  
Wind Chill: 75°   Ceiling: 2100
Heat Index: 75°   Visibility: 3mi
Dew Point: 70°   Wind: 6mph
Humidity: 83%   Direction: 90°E
Pressure: 30"   Gusts: NA
Location:  22.85°S, 46.32°W
Report Text: SBSJ 232100Z 09005KT 5000 -RA BKN021 BKN070 24/21 Q1016
Loading
Personal Weather Stations






























Interactive Weather Map New forecast layout! Learn more

10-Day Weather Forecast

Advertisements
Track Severe Weather on mobile